This is the latest recevied weather packets stored in our database for station/object DB0FN-10. If no packets are shown the sender has not sent any weather packets the latest 10 day(s).
| Time | Temp. | Humidity | Pressure | Rain* | Wind** | Luminosity | Snow |
|---|---|---|---|---|---|---|---|
| 1787910441 | 23.89° C | 76% | 1019.1 hPa | - | - | - | - |
| 1787909541 | 22.22° C | 89% | 1018.4 hPa | - | - | - | - |
| 1787908641 | 22.78° C | 94% | 1018.3 hPa | - | - | - | - |
| 1787907741 | 23.33° C | 85% | 1017.9 hPa | - | - | - | - |
| 1787906841 | 23.89° C | 81% | 1018.6 hPa | - | - | - | - |
| 1787905941 | 27.22° C | 60% | 1015.2 hPa | - | - | - | - |
| 1787905041 | 29.44° C | 53% | 1014.1 hPa | - | - | - | - |
| 1787904141 | 28.89° C | 52% | 1014.7 hPa | - | - | - | - |
| 1787903241 | 28.33° C | 51% | 1015.2 hPa | - | - | - | - |
| 1787902340 | 28.89° C | 50% | 1015.5 hPa | - | - | - | - |
| 1787901440 | 29.44° C | 49% | 1016.6 hPa | - | - | - | - |
| 1787900540 | 28.89° C | 51% | 1016.7 hPa | - | - | - | - |
| 1787899640 | 28.33° C | 54% | 1016.7 hPa | - | - | - | - |
| 1787898740 | 28.33° C | 55% | 1016.6 hPa | - | - | - | - |
| 1787897840 | 28.33° C | 51% | 1016.8 hPa | - | - | - | - |
| 1787896940 | 28.33° C | 48% | 1016.7 hPa | - | - | - | - |
| 1787896040 | 27.78° C | 51% | 1016.4 hPa | - | - | - | - |
| 1787895140 | 27.22° C | 52% | 1016.5 hPa | - | - | - | - |
| 1787894240 | 28.33° C | 46% | 1016.6 hPa | - | - | - | - |
| 1787893340 | 27.22° C | 47% | 1016.5 hPa | - | - | - | - |
| 1787892440 | 30° C | 36% | 1016.5 hPa | - | - | - | - |
| 1787891540 | 30° C | 37% | 1016.1 hPa | - | - | - | - |
| 1787890639 | 29.44° C | 38% | 1016 hPa | - | - | - | - |
| 1787889739 | 30° C | 36% | 1016.1 hPa | - | - | - | - |
| 1787888839 | 30° C | 35% | 1015.8 hPa | - | - | - | - |
* Rain since midnight (hover to see other rain measurements)
** Current wind speed in m/s (hover to see current wind gust speed)